sensor_id;sensor_type;location;lat;lon;timestamp;P1;durP1;ratioP1;P2;durP2;ratioP2
8013;SDS011;4052;50.500;8.660;2022-10-28T00:02:07;3.23;;;2.83;;
8013;SDS011;4052;50.500;8.660;2022-10-28T00:04:33;3.83;;;2.70;;
8013;SDS011;4052;50.500;8.660;2022-10-28T00:06:59;5.97;;;2.83;;
8013;SDS011;4052;50.500;8.660;2022-10-28T00:09:25;3.23;;;2.93;;
8013;SDS011;4052;50.500;8.660;2022-10-28T00:11:51;4.47;;;2.73;;
8013;SDS011;4052;50.500;8.660;2022-10-28T00:14:17;5.33;;;2.93;;
8013;SDS011;4052;50.500;8.660;2022-10-28T00:16:43;4.77;;;2.60;;
8013;SDS011;4052;50.500;8.660;2022-10-28T00:19:09;3.10;;;2.80;;
8013;SDS011;4052;50.500;8.660;2022-10-28T00:21:36;4.17;;;2.70;;
8013;SDS011;4052;50.500;8.660;2022-10-28T00:24:02;3.57;;;2.70;;
8013;SDS011;4052;50.500;8.660;2022-10-28T00:26:29;4.73;;;3.43;;
8013;SDS011;4052;50.500;8.660;2022-10-28T00:28:57;4.57;;;3.00;;
8013;SDS011;4052;50.500;8.660;2022-10-28T00:31:24;6.50;;;3.20;;
8013;SDS011;4052;50.500;8.660;2022-10-28T00:33:50;4.60;;;3.00;;
8013;SDS011;4052;50.500;8.660;2022-10-28T00:36:20;4.67;;;3.27;;
8013;SDS011;4052;50.500;8.660;2022-10-28T00:38:46;7.20;;;3.10;;
8013;SDS011;4052;50.500;8.660;2022-10-28T00:41:15;3.67;;;2.90;;
8013;SDS011;4052;50.500;8.660;2022-10-28T00:43:42;4.17;;;3.20;;
8013;SDS011;4052;50.500;8.660;2022-10-28T00:46:31;15.07;;;3.43;;
8013;SDS011;4052;50.500;8.660;2022-10-28T00:48:59;3.47;;;3.17;;
8013;SDS011;4052;50.500;8.660;2022-10-28T00:51:26;3.80;;;3.00;;
8013;SDS011;4052;50.500;8.660;2022-10-28T00:53:54;4.73;;;3.70;;
8013;SDS011;4052;50.500;8.660;2022-10-28T00:56:21;3.50;;;3.20;;
8013;SDS011;4052;50.500;8.660;2022-10-28T00:58:47;3.30;;;2.70;;
8013;SDS011;4052;50.500;8.660;2022-10-28T01:01:14;6.13;;;3.80;;
8013;SDS011;4052;50.500;8.660;2022-10-28T01:03:40;4.67;;;2.47;;
8013;SDS011;4052;50.500;8.660;2022-10-28T01:06:06;5.90;;;2.40;;
8013;SDS011;4052;50.500;8.660;2022-10-28T01:08:33;4.37;;;2.80;;
8013;SDS011;4052;50.500;8.660;2022-10-28T01:16:24;3.03;;;2.73;;
8013;SDS011;4052;50.500;8.660;2022-10-28T01:21:34;9.17;;;3.53;;
8013;SDS011;4052;50.500;8.660;2022-10-28T01:24:11;3.87;;;2.87;;
8013;SDS011;4052;50.500;8.660;2022-10-28T01:31:52;8.27;;;3.60;;
8013;SDS011;4052;50.500;8.660;2022-10-28T01:39:33;5.53;;;3.70;;
8013;SDS011;4052;50.500;8.660;2022-10-28T01:49:30;4.57;;;2.93;;
8013;SDS011;4052;50.500;8.660;2022-10-28T01:52:03;9.10;;;3.57;;
8013;SDS011;4052;50.500;8.660;2022-10-28T01:54:31;4.80;;;3.57;;
8013;SDS011;4052;50.500;8.660;2022-10-28T01:56:57;8.47;;;3.40;;
8013;SDS011;4052;50.500;8.660;2022-10-28T01:59:25;5.90;;;3.13;;
8013;SDS011;4052;50.500;8.660;2022-10-28T02:01:52;2.93;;;2.40;;
8013;SDS011;4052;50.500;8.660;2022-10-28T02:04:18;6.30;;;3.40;;
8013;SDS011;4052;50.500;8.660;2022-10-28T02:06:45;3.53;;;3.03;;
8013;SDS011;4052;50.500;8.660;2022-10-28T02:17:24;4.33;;;2.97;;
8013;SDS011;4052;50.500;8.660;2022-10-28T02:22:40;5.87;;;3.20;;
8013;SDS011;4052;50.500;8.660;2022-10-28T02:25:08;5.60;;;4.43;;
8013;SDS011;4052;50.500;8.660;2022-10-28T02:27:53;3.83;;;2.93;;
8013;SDS011;4052;50.500;8.660;2022-10-28T02:30:27;3.80;;;3.27;;
8013;SDS011;4052;50.500;8.660;2022-10-28T02:32:58;4.07;;;3.13;;
8013;SDS011;4052;50.500;8.660;2022-10-28T02:36:08;4.17;;;2.83;;
8013;SDS011;4052;50.500;8.660;2022-10-28T02:38:15;3.07;;;2.53;;
8013;SDS011;4052;50.500;8.660;2022-10-28T02:43:46;6.13;;;3.10;;
8013;SDS011;4052;50.500;8.660;2022-10-28T02:46:14;6.73;;;3.37;;
8013;SDS011;4052;50.500;8.660;2022-10-28T02:49:14;5.40;;;3.10;;
8013;SDS011;4052;50.500;8.660;2022-10-28T02:51:35;6.90;;;3.13;;
8013;SDS011;4052;50.500;8.660;2022-10-28T02:54:08;6.37;;;2.87;;
8013;SDS011;4052;50.500;8.660;2022-10-28T02:59:19;4.27;;;3.13;;
8013;SDS011;4052;50.500;8.660;2022-10-28T03:01:45;3.63;;;2.73;;
8013;SDS011;4052;50.500;8.660;2022-10-28T03:04:11;4.90;;;2.40;;
8013;SDS011;4052;50.500;8.660;2022-10-28T03:06:37;2.37;;;2.17;;
8013;SDS011;4052;50.500;8.660;2022-10-28T03:09:03;6.73;;;3.40;;
8013;SDS011;4052;50.500;8.660;2022-10-28T03:11:29;2.97;;;2.57;;
8013;SDS011;4052;50.500;8.660;2022-10-28T03:13:54;4.23;;;2.93;;
8013;SDS011;4052;50.500;8.660;2022-10-28T03:16:20;4.70;;;2.77;;
8013;SDS011;4052;50.500;8.660;2022-10-28T03:18:46;4.80;;;2.83;;
8013;SDS011;4052;50.500;8.660;2022-10-28T03:21:12;3.67;;;2.63;;
8013;SDS011;4052;50.500;8.660;2022-10-28T03:23:38;5.03;;;3.30;;
8013;SDS011;4052;50.500;8.660;2022-10-28T03:26:04;4.83;;;3.10;;
8013;SDS011;4052;50.500;8.660;2022-10-28T03:28:30;7.97;;;3.37;;
8013;SDS011;4052;50.500;8.660;2022-10-28T03:30:56;3.77;;;2.23;;
8013;SDS011;4052;50.500;8.660;2022-10-28T03:33:22;3.37;;;2.53;;
8013;SDS011;4052;50.500;8.660;2022-10-28T03:35:48;3.20;;;2.67;;
8013;SDS011;4052;50.500;8.660;2022-10-28T03:38:14;6.73;;;2.90;;
8013;SDS011;4052;50.500;8.660;2022-10-28T03:40:40;1.90;;;1.80;;
8013;SDS011;4052;50.500;8.660;2022-10-28T03:43:06;4.00;;;2.80;;
8013;SDS011;4052;50.500;8.660;2022-10-28T03:45:32;9.57;;;3.33;;
8013;SDS011;4052;50.500;8.660;2022-10-28T03:47:58;5.07;;;3.00;;
8013;SDS011;4052;50.500;8.660;2022-10-28T03:50:24;4.67;;;2.73;;
8013;SDS011;4052;50.500;8.660;2022-10-28T03:52:50;5.20;;;2.90;;
8013;SDS011;4052;50.500;8.660;2022-10-28T03:55:16;6.40;;;2.87;;
8013;SDS011;4052;50.500;8.660;2022-10-28T03:57:42;5.53;;;3.00;;
8013;SDS011;4052;50.500;8.660;2022-10-28T04:00:08;4.67;;;2.73;;
8013;SDS011;4052;50.500;8.660;2022-10-28T04:02:34;3.10;;;2.23;;
8013;SDS011;4052;50.500;8.660;2022-10-28T04:05:00;5.43;;;2.87;;
8013;SDS011;4052;50.500;8.660;2022-10-28T04:07:26;3.33;;;2.97;;
8013;SDS011;4052;50.500;8.660;2022-10-28T04:09:52;5.40;;;3.23;;
8013;SDS011;4052;50.500;8.660;2022-10-28T04:12:18;3.30;;;2.43;;
8013;SDS011;4052;50.500;8.660;2022-10-28T04:14:44;5.97;;;3.23;;
8013;SDS011;4052;50.500;8.660;2022-10-28T04:17:10;3.50;;;2.60;;
8013;SDS011;4052;50.500;8.660;2022-10-28T04:19:36;4.80;;;2.77;;
8013;SDS011;4052;50.500;8.660;2022-10-28T04:22:02;3.93;;;3.10;;
8013;SDS011;4052;50.500;8.660;2022-10-28T04:24:27;6.93;;;3.17;;
8013;SDS011;4052;50.500;8.660;2022-10-28T04:26:53;5.50;;;3.17;;
8013;SDS011;4052;50.500;8.660;2022-10-28T04:29:19;3.00;;;2.70;;
8013;SDS011;4052;50.500;8.660;2022-10-28T04:31:45;4.80;;;2.87;;
8013;SDS011;4052;50.500;8.660;2022-10-28T04:34:11;3.60;;;2.57;;
8013;SDS011;4052;50.500;8.660;2022-10-28T04:36:37;4.47;;;3.07;;
8013;SDS011;4052;50.500;8.660;2022-10-28T04:39:03;5.53;;;3.13;;
8013;SDS011;4052;50.500;8.660;2022-10-28T04:41:29;3.33;;;2.60;;
8013;SDS011;4052;50.500;8.660;2022-10-28T04:43:55;4.20;;;2.90;;
8013;SDS011;4052;50.500;8.660;2022-10-28T04:46:21;4.97;;;2.40;;
8013;SDS011;4052;50.500;8.660;2022-10-28T04:48:47;3.50;;;2.70;;
8013;SDS011;4052;50.500;8.660;2022-10-28T04:51:13;3.37;;;2.73;;
8013;SDS011;4052;50.500;8.660;2022-10-28T04:53:39;3.93;;;2.73;;
8013;SDS011;4052;50.500;8.660;2022-10-28T04:56:05;3.80;;;2.30;;
8013;SDS011;4052;50.500;8.660;2022-10-28T04:58:31;5.10;;;2.73;;
8013;SDS011;4052;50.500;8.660;2022-10-28T05:00:57;4.70;;;3.20;;
8013;SDS011;4052;50.500;8.660;2022-10-28T05:03:23;3.63;;;2.80;;
8013;SDS011;4052;50.500;8.660;2022-10-28T05:05:49;4.30;;;2.80;;
8013;SDS011;4052;50.500;8.660;2022-10-28T05:08:15;6.47;;;3.03;;
8013;SDS011;4052;50.500;8.660;2022-10-28T05:10:41;4.67;;;2.90;;
8013;SDS011;4052;50.500;8.660;2022-10-28T05:13:07;4.77;;;2.70;;
8013;SDS011;4052;50.500;8.660;2022-10-28T05:15:33;4.57;;;2.53;;
8013;SDS011;4052;50.500;8.660;2022-10-28T05:17:59;2.23;;;2.03;;
8013;SDS011;4052;50.500;8.660;2022-10-28T05:20:25;2.43;;;2.23;;
8013;SDS011;4052;50.500;8.660;2022-10-28T05:22:51;3.90;;;2.67;;
8013;SDS011;4052;50.500;8.660;2022-10-28T05:25:18;3.10;;;2.43;;
8013;SDS011;4052;50.500;8.660;2022-10-28T05:27:44;5.20;;;2.73;;
8013;SDS011;4052;50.500;8.660;2022-10-28T05:30:11;4.47;;;2.10;;
8013;SDS011;4052;50.500;8.660;2022-10-28T05:32:37;11.93;;;3.00;;
8013;SDS011;4052;50.500;8.660;2022-10-28T05:35:03;3.50;;;2.63;;
8013;SDS011;4052;50.500;8.660;2022-10-28T05:37:30;2.80;;;2.57;;
8013;SDS011;4052;50.500;8.660;2022-10-28T05:39:55;3.47;;;2.57;;
8013;SDS011;4052;50.500;8.660;2022-10-28T05:42:21;3.73;;;2.63;;
8013;SDS011;4052;50.500;8.660;2022-10-28T05:44:47;4.57;;;2.33;;
8013;SDS011;4052;50.500;8.660;2022-10-28T05:47:13;6.13;;;2.80;;
8013;SDS011;4052;50.500;8.660;2022-10-28T05:49:39;2.87;;;2.30;;
8013;SDS011;4052;50.500;8.660;2022-10-28T05:52:05;3.70;;;2.63;;
8013;SDS011;4052;50.500;8.660;2022-10-28T05:54:31;5.90;;;3.23;;
8013;SDS011;4052;50.500;8.660;2022-10-28T05:56:57;3.40;;;3.03;;
8013;SDS011;4052;50.500;8.660;2022-10-28T05:59:23;3.03;;;2.67;;
8013;SDS011;4052;50.500;8.660;2022-10-28T06:01:49;5.40;;;2.37;;
8013;SDS011;4052;50.500;8.660;2022-10-28T06:04:15;5.20;;;2.60;;
8013;SDS011;4052;50.500;8.660;2022-10-28T06:06:41;4.27;;;2.20;;
8013;SDS011;4052;50.500;8.660;2022-10-28T06:09:07;4.70;;;3.70;;
8013;SDS011;4052;50.500;8.660;2022-10-28T06:11:33;2.80;;;2.37;;
8013;SDS011;4052;50.500;8.660;2022-10-28T06:13:59;4.87;;;2.30;;
8013;SDS011;4052;50.500;8.660;2022-10-28T06:16:25;3.60;;;2.93;;
8013;SDS011;4052;50.500;8.660;2022-10-28T06:18:51;6.33;;;2.37;;
8013;SDS011;4052;50.500;8.660;2022-10-28T06:21:17;4.77;;;3.10;;
8013;SDS011;4052;50.500;8.660;2022-10-28T06:23:45;5.30;;;2.90;;
8013;SDS011;4052;50.500;8.660;2022-10-28T06:26:12;3.40;;;2.77;;
8013;SDS011;4052;50.500;8.660;2022-10-28T06:28:38;7.63;;;3.50;;
8013;SDS011;4052;50.500;8.660;2022-10-28T06:31:04;8.73;;;3.37;;
8013;SDS011;4052;50.500;8.660;2022-10-28T06:33:31;5.13;;;2.80;;
8013;SDS011;4052;50.500;8.660;2022-10-28T06:35:57;4.63;;;2.63;;
8013;SDS011;4052;50.500;8.660;2022-10-28T06:38:27;4.17;;;2.83;;
8013;SDS011;4052;50.500;8.660;2022-10-28T06:40:53;5.17;;;2.77;;
8013;SDS011;4052;50.500;8.660;2022-10-28T06:43:19;6.33;;;3.13;;
8013;SDS011;4052;50.500;8.660;2022-10-28T06:45:45;4.00;;;3.03;;
8013;SDS011;4052;50.500;8.660;2022-10-28T06:48:12;6.10;;;3.33;;
8013;SDS011;4052;50.500;8.660;2022-10-28T06:50:38;8.50;;;3.30;;
8013;SDS011;4052;50.500;8.660;2022-10-28T06:53:04;5.80;;;2.93;;
8013;SDS011;4052;50.500;8.660;2022-10-28T06:55:30;3.23;;;2.40;;
8013;SDS011;4052;50.500;8.660;2022-10-28T06:57:59;3.03;;;2.40;;
8013;SDS011;4052;50.500;8.660;2022-10-28T07:00:26;5.80;;;3.27;;
8013;SDS011;4052;50.500;8.660;2022-10-28T07:02:52;3.90;;;2.60;;
8013;SDS011;4052;50.500;8.660;2022-10-28T07:05:18;3.17;;;2.40;;
8013;SDS011;4052;50.500;8.660;2022-10-28T07:07:45;6.80;;;2.37;;
8013;SDS011;4052;50.500;8.660;2022-10-28T07:10:11;5.03;;;2.63;;
8013;SDS011;4052;50.500;8.660;2022-10-28T07:12:37;5.10;;;2.33;;
8013;SDS011;4052;50.500;8.660;2022-10-28T07:15:03;2.23;;;2.00;;
8013;SDS011;4052;50.500;8.660;2022-10-28T07:17:29;4.37;;;2.20;;
8013;SDS011;4052;50.500;8.660;2022-10-28T07:19:55;2.63;;;2.13;;
8013;SDS011;4052;50.500;8.660;2022-10-28T07:22:21;5.20;;;2.90;;
8013;SDS011;4052;50.500;8.660;2022-10-28T07:24:47;3.73;;;2.40;;
8013;SDS011;4052;50.500;8.660;2022-10-28T07:27:13;4.37;;;2.37;;
8013;SDS011;4052;50.500;8.660;2022-10-28T07:29:39;3.93;;;2.00;;
8013;SDS011;4052;50.500;8.660;2022-10-28T07:32:05;4.40;;;2.70;;
8013;SDS011;4052;50.500;8.660;2022-10-28T07:34:31;2.83;;;2.20;;
8013;SDS011;4052;50.500;8.660;2022-10-28T07:36:57;4.20;;;2.23;;
8013;SDS011;4052;50.500;8.660;2022-10-28T07:39:23;3.60;;;2.70;;
8013;SDS011;4052;50.500;8.660;2022-10-28T07:41:49;6.30;;;2.27;;
8013;SDS011;4052;50.500;8.660;2022-10-28T07:44:15;4.97;;;1.70;;
8013;SDS011;4052;50.500;8.660;2022-10-28T07:46:41;2.57;;;2.37;;
8013;SDS011;4052;50.500;8.660;2022-10-28T07:49:07;5.27;;;2.17;;
8013;SDS011;4052;50.500;8.660;2022-10-28T07:51:33;2.90;;;2.20;;
8013;SDS011;4052;50.500;8.660;2022-10-28T07:53:59;2.73;;;2.13;;
8013;SDS011;4052;50.500;8.660;2022-10-28T07:56:25;2.40;;;2.07;;
8013;SDS011;4052;50.500;8.660;2022-10-28T07:58:51;2.60;;;2.07;;
8013;SDS011;4052;50.500;8.660;2022-10-28T08:01:18;2.20;;;1.80;;
8013;SDS011;4052;50.500;8.660;2022-10-28T08:03:44;3.67;;;2.60;;
8013;SDS011;4052;50.500;8.660;2022-10-28T08:06:16;2.80;;;2.10;;
8013;SDS011;4052;50.500;8.660;2022-10-28T08:08:42;5.53;;;2.20;;
8013;SDS011;4052;50.500;8.660;2022-10-28T08:11:12;2.40;;;1.90;;
8013;SDS011;4052;50.500;8.660;2022-10-28T08:13:39;2.10;;;1.87;;
8013;SDS011;4052;50.500;8.660;2022-10-28T08:16:05;2.20;;;1.90;;
8013;SDS011;4052;50.500;8.660;2022-10-28T08:18:32;4.07;;;2.43;;
8013;SDS011;4052;50.500;8.660;2022-10-28T08:20:58;5.40;;;2.53;;
8013;SDS011;4052;50.500;8.660;2022-10-28T08:23:24;4.90;;;2.27;;
8013;SDS011;4052;50.500;8.660;2022-10-28T08:25:51;4.30;;;2.27;;
8013;SDS011;4052;50.500;8.660;2022-10-28T08:28:17;2.30;;;1.97;;
8013;SDS011;4052;50.500;8.660;2022-10-28T08:30:44;3.07;;;2.40;;
8013;SDS011;4052;50.500;8.660;2022-10-28T08:33:10;6.83;;;3.03;;
8013;SDS011;4052;50.500;8.660;2022-10-28T08:35:36;2.97;;;2.10;;
8013;SDS011;4052;50.500;8.660;2022-10-28T08:38:02;5.90;;;2.63;;
8013;SDS011;4052;50.500;8.660;2022-10-28T08:41:11;3.60;;;2.30;;
8013;SDS011;4052;50.500;8.660;2022-10-28T08:43:22;10.70;;;3.07;;
8013;SDS011;4052;50.500;8.660;2022-10-28T08:50:45;4.27;;;2.93;;
8013;SDS011;4052;50.500;8.660;2022-10-28T08:53:33;2.60;;;2.40;;
8013;SDS011;4052;50.500;8.660;2022-10-28T08:56:05;2.30;;;2.03;;
8013;SDS011;4052;50.500;8.660;2022-10-28T08:58:33;3.43;;;2.30;;
8013;SDS011;4052;50.500;8.660;2022-10-28T09:00:59;4.47;;;2.73;;
8013;SDS011;4052;50.500;8.660;2022-10-28T09:03:26;2.97;;;2.30;;
8013;SDS011;4052;50.500;8.660;2022-10-28T09:05:55;2.37;;;2.17;;
8013;SDS011;4052;50.500;8.660;2022-10-28T09:08:23;2.33;;;2.10;;
8013;SDS011;4052;50.500;8.660;2022-10-28T09:19:13;6.13;;;2.20;;
8013;SDS011;4052;50.500;8.660;2022-10-28T09:23:54;5.20;;;2.53;;
8013;SDS011;4052;50.500;8.660;2022-10-28T09:26:24;5.60;;;2.30;;
8013;SDS011;4052;50.500;8.660;2022-10-28T09:29:01;2.80;;;2.27;;
8013;SDS011;4052;50.500;8.660;2022-10-28T09:31:33;2.73;;;2.37;;
8013;SDS011;4052;50.500;8.660;2022-10-28T09:34:47;2.63;;;2.40;;
8013;SDS011;4052;50.500;8.660;2022-10-28T09:37:10;2.43;;;1.93;;
8013;SDS011;4052;50.500;8.660;2022-10-28T09:40:39;2.67;;;2.27;;
8013;SDS011;4052;50.500;8.660;2022-10-28T09:42:34;4.70;;;3.00;;
8013;SDS011;4052;50.500;8.660;2022-10-28T09:45:02;2.20;;;2.00;;
8013;SDS011;4052;50.500;8.660;2022-10-28T09:47:30;3.63;;;2.13;;
8013;SDS011;4052;50.500;8.660;2022-10-28T09:49:58;3.57;;;2.07;;
8013;SDS011;4052;50.500;8.660;2022-10-28T09:52:28;4.17;;;2.30;;
8013;SDS011;4052;50.500;8.660;2022-10-28T09:54:55;2.43;;;2.07;;
8013;SDS011;4052;50.500;8.660;2022-10-28T09:57:23;4.00;;;2.00;;
8013;SDS011;4052;50.500;8.660;2022-10-28T09:59:54;3.57;;;2.17;;
8013;SDS011;4052;50.500;8.660;2022-10-28T10:02:27;3.73;;;2.40;;
8013;SDS011;4052;50.500;8.660;2022-10-28T10:04:57;2.07;;;1.87;;
8013;SDS011;4052;50.500;8.660;2022-10-28T10:07:25;5.10;;;2.10;;
8013;SDS011;4052;50.500;8.660;2022-10-28T10:09:53;2.47;;;2.13;;
8013;SDS011;4052;50.500;8.660;2022-10-28T10:12:20;8.67;;;2.93;;
8013;SDS011;4052;50.500;8.660;2022-10-28T10:14:49;4.23;;;1.93;;
8013;SDS011;4052;50.500;8.660;2022-10-28T10:17:29;2.70;;;2.50;;
8013;SDS011;4052;50.500;8.660;2022-10-28T10:20:07;6.50;;;2.47;;
8013;SDS011;4052;50.500;8.660;2022-10-28T10:22:35;5.30;;;2.60;;
8013;SDS011;4052;50.500;8.660;2022-10-28T10:25:02;3.13;;;2.17;;
8013;SDS011;4052;50.500;8.660;2022-10-28T10:27:28;2.47;;;1.90;;
8013;SDS011;4052;50.500;8.660;2022-10-28T10:29:55;5.23;;;2.40;;
8013;SDS011;4052;50.500;8.660;2022-10-28T10:32:31;3.10;;;1.30;;
8013;SDS011;4052;50.500;8.660;2022-10-28T10:35:00;2.63;;;2.43;;
8013;SDS011;4052;50.500;8.660;2022-10-28T10:37:27;3.53;;;2.07;;
8013;SDS011;4052;50.500;8.660;2022-10-28T10:40:28;7.07;;;2.80;;
8013;SDS011;4052;50.500;8.660;2022-10-28T10:42:46;2.87;;;1.57;;
8013;SDS011;4052;50.500;8.660;2022-10-28T10:45:25;5.23;;;1.87;;
8013;SDS011;4052;50.500;8.660;2022-10-28T10:50:37;4.37;;;2.17;;
8013;SDS011;4052;50.500;8.660;2022-10-28T10:53:03;2.37;;;2.03;;
8013;SDS011;4052;50.500;8.660;2022-10-28T10:55:37;4.83;;;2.20;;
8013;SDS011;4052;50.500;8.660;2022-10-28T10:58:04;2.60;;;2.03;;
8013;SDS011;4052;50.500;8.660;2022-10-28T11:00:33;3.67;;;1.97;;
8013;SDS011;4052;50.500;8.660;2022-10-28T11:03:00;9.20;;;2.63;;
8013;SDS011;4052;50.500;8.660;2022-10-28T11:05:26;3.27;;;2.13;;
8013;SDS011;4052;50.500;8.660;2022-10-28T11:07:52;4.13;;;2.00;;
8013;SDS011;4052;50.500;8.660;2022-10-28T11:10:25;2.67;;;2.30;;
8013;SDS011;4052;50.500;8.660;2022-10-28T11:12:53;5.73;;;2.37;;
8013;SDS011;4052;50.500;8.660;2022-10-28T11:15:21;3.23;;;2.03;;
8013;SDS011;4052;50.500;8.660;2022-10-28T11:17:59;2.43;;;2.23;;
8013;SDS011;4052;50.500;8.660;2022-10-28T11:20:26;2.87;;;1.93;;
8013;SDS011;4052;50.500;8.660;2022-10-28T11:25:37;4.23;;;2.30;;
8013;SDS011;4052;50.500;8.660;2022-10-28T11:28:10;5.93;;;2.47;;
8013;SDS011;4052;50.500;8.660;2022-10-28T11:33:08;4.47;;;2.40;;
8013;SDS011;4052;50.500;8.660;2022-10-28T11:35:45;4.07;;;2.40;;
8013;SDS011;4052;50.500;8.660;2022-10-28T11:38:23;3.57;;;2.63;;
8013;SDS011;4052;50.500;8.660;2022-10-28T11:43:37;3.97;;;2.10;;
8013;SDS011;4052;50.500;8.660;2022-10-28T11:46:16;2.70;;;1.83;;
8013;SDS011;4052;50.500;8.660;2022-10-28T12:04:46;2.27;;;1.63;;
8013;SDS011;4052;50.500;8.660;2022-10-28T12:09:56;2.87;;;1.70;;
8013;SDS011;4052;50.500;8.660;2022-10-28T12:12:34;2.87;;;1.40;;
8013;SDS011;4052;50.500;8.660;2022-10-28T12:17:52;2.70;;;1.90;;
8013;SDS011;4052;50.500;8.660;2022-10-28T12:20:41;3.20;;;1.53;;
8013;SDS011;4052;50.500;8.660;2022-10-28T12:23:11;7.57;;;2.93;;
8013;SDS011;4052;50.500;8.660;2022-10-28T12:25:39;3.37;;;2.53;;
8013;SDS011;4052;50.500;8.660;2022-10-28T12:28:12;5.83;;;1.80;;
8013;SDS011;4052;50.500;8.660;2022-10-28T12:30:41;5.10;;;1.50;;
8013;SDS011;4052;50.500;8.660;2022-10-28T12:33:14;11.27;;;2.67;;
8013;SDS011;4052;50.500;8.660;2022-10-28T12:35:46;2.67;;;1.57;;
8013;SDS011;4052;50.500;8.660;2022-10-28T12:38:14;1.43;;;1.33;;
8013;SDS011;4052;50.500;8.660;2022-10-28T12:40:44;2.57;;;1.97;;
8013;SDS011;4052;50.500;8.660;2022-10-28T12:43:14;2.03;;;1.37;;
8013;SDS011;4052;50.500;8.660;2022-10-28T12:45:41;2.40;;;1.57;;
8013;SDS011;4052;50.500;8.660;2022-10-28T12:48:15;1.47;;;1.37;;
8013;SDS011;4052;50.500;8.660;2022-10-28T12:50:45;3.27;;;1.60;;
8013;SDS011;4052;50.500;8.660;2022-10-28T12:58:19;1.67;;;1.27;;
8013;SDS011;4052;50.500;8.660;2022-10-28T13:00:47;7.43;;;1.53;;
8013;SDS011;4052;50.500;8.660;2022-10-28T13:03:19;2.27;;;1.60;;
8013;SDS011;4052;50.500;8.660;2022-10-28T13:05:47;5.00;;;2.23;;
8013;SDS011;4052;50.500;8.660;2022-10-28T13:11:28;1.97;;;1.37;;
8013;SDS011;4052;50.500;8.660;2022-10-28T13:13:54;2.93;;;1.90;;
8013;SDS011;4052;50.500;8.660;2022-10-28T13:21:48;3.43;;;1.57;;
8013;SDS011;4052;50.500;8.660;2022-10-28T13:24:23;4.00;;;1.93;;
8013;SDS011;4052;50.500;8.660;2022-10-28T13:26:54;4.07;;;2.07;;
8013;SDS011;4052;50.500;8.660;2022-10-28T13:29:21;1.80;;;1.20;;
8013;SDS011;4052;50.500;8.660;2022-10-28T13:31:48;4.47;;;1.60;;
8013;SDS011;4052;50.500;8.660;2022-10-28T13:34:16;2.17;;;1.30;;
8013;SDS011;4052;50.500;8.660;2022-10-28T13:36:43;4.23;;;1.60;;
8013;SDS011;4052;50.500;8.660;2022-10-28T13:39:22;1.63;;;1.23;;
8013;SDS011;4052;50.500;8.660;2022-10-28T13:41:49;5.07;;;1.27;;
8013;SDS011;4052;50.500;8.660;2022-10-28T13:44:55;2.20;;;1.10;;
8013;SDS011;4052;50.500;8.660;2022-10-28T13:47:25;4.67;;;1.97;;
8013;SDS011;4052;50.500;8.660;2022-10-28T13:52:31;3.37;;;1.10;;
8013;SDS011;4052;50.500;8.660;2022-10-28T13:54:57;1.97;;;1.07;;
8013;SDS011;4052;50.500;8.660;2022-10-28T13:57:27;3.20;;;1.67;;
8013;SDS011;4052;50.500;8.660;2022-10-28T13:59:59;2.80;;;1.83;;
8013;SDS011;4052;50.500;8.660;2022-10-28T14:02:28;6.30;;;1.40;;
8013;SDS011;4052;50.500;8.660;2022-10-28T14:05:02;2.60;;;1.57;;
8013;SDS011;4052;50.500;8.660;2022-10-28T14:07:29;2.77;;;1.40;;
8013;SDS011;4052;50.500;8.660;2022-10-28T14:10:18;5.20;;;1.60;;
8013;SDS011;4052;50.500;8.660;2022-10-28T14:12:45;4.20;;;1.57;;
8013;SDS011;4052;50.500;8.660;2022-10-28T14:17:39;3.37;;;1.30;;
8013;SDS011;4052;50.500;8.660;2022-10-28T14:20:17;5.07;;;1.70;;
8013;SDS011;4052;50.500;8.660;2022-10-28T14:22:45;1.87;;;1.30;;
8013;SDS011;4052;50.500;8.660;2022-10-28T14:27:57;1.70;;;1.20;;
8013;SDS011;4052;50.500;8.660;2022-10-28T14:30:23;2.93;;;1.37;;
8013;SDS011;4052;50.500;8.660;2022-10-28T14:32:54;8.47;;;1.87;;
8013;SDS011;4052;50.500;8.660;2022-10-28T14:35:42;4.30;;;1.43;;
8013;SDS011;4052;50.500;8.660;2022-10-28T14:38:18;1.13;;;1.03;;
8013;SDS011;4052;50.500;8.660;2022-10-28T14:43:45;3.80;;;1.60;;
8013;SDS011;4052;50.500;8.660;2022-10-28T14:46:16;1.80;;;1.30;;
8013;SDS011;4052;50.500;8.660;2022-10-28T14:51:17;2.07;;;1.47;;
8013;SDS011;4052;50.500;8.660;2022-10-28T14:53:44;2.77;;;1.47;;
8013;SDS011;4052;50.500;8.660;2022-10-28T14:56:15;1.43;;;1.00;;
8013;SDS011;4052;50.500;8.660;2022-10-28T14:58:42;1.87;;;1.40;;
8013;SDS011;4052;50.500;8.660;2022-10-28T15:03:41;0.97;;;0.97;;
8013;SDS011;4052;50.500;8.660;2022-10-28T15:08:52;1.00;;;0.97;;
8013;SDS011;4052;50.500;8.660;2022-10-28T15:11:19;3.97;;;1.80;;
8013;SDS011;4052;50.500;8.660;2022-10-28T15:13:50;2.07;;;1.50;;
8013;SDS011;4052;50.500;8.660;2022-10-28T15:16:23;2.07;;;1.27;;
8013;SDS011;4052;50.500;8.660;2022-10-28T15:18:51;1.93;;;1.30;;
8013;SDS011;4052;50.500;8.660;2022-10-28T15:21:19;1.50;;;1.40;;
8013;SDS011;4052;50.500;8.660;2022-10-28T15:23:56;1.87;;;1.60;;
8013;SDS011;4052;50.500;8.660;2022-10-28T15:26:22;2.87;;;1.37;;
8013;SDS011;4052;50.500;8.660;2022-10-28T15:28:48;2.47;;;1.20;;
8013;SDS011;4052;50.500;8.660;2022-10-28T15:31:15;3.30;;;1.47;;
8013;SDS011;4052;50.500;8.660;2022-10-28T15:33:41;1.33;;;1.23;;
8013;SDS011;4052;50.500;8.660;2022-10-28T15:36:09;4.60;;;1.60;;
8013;SDS011;4052;50.500;8.660;2022-10-28T15:38:38;1.87;;;1.60;;
8013;SDS011;4052;50.500;8.660;2022-10-28T15:43:53;3.73;;;1.40;;
8013;SDS011;4052;50.500;8.660;2022-10-28T15:46:19;4.60;;;1.57;;
8013;SDS011;4052;50.500;8.660;2022-10-28T15:48:50;1.73;;;1.40;;
8013;SDS011;4052;50.500;8.660;2022-10-28T15:51:17;2.00;;;1.47;;
8013;SDS011;4052;50.500;8.660;2022-10-28T15:53:52;2.20;;;1.77;;
8013;SDS011;4052;50.500;8.660;2022-10-28T15:56:20;1.77;;;1.63;;
8013;SDS011;4052;50.500;8.660;2022-10-28T16:04:04;4.23;;;1.90;;
8013;SDS011;4052;50.500;8.660;2022-10-28T16:06:31;1.73;;;1.13;;
8013;SDS011;4052;50.500;8.660;2022-10-28T16:08:58;4.50;;;1.60;;
8013;SDS011;4052;50.500;8.660;2022-10-28T16:11:25;1.80;;;1.60;;
8013;SDS011;4052;50.500;8.660;2022-10-28T16:13:51;4.67;;;1.70;;
8013;SDS011;4052;50.500;8.660;2022-10-28T16:16:24;4.67;;;2.10;;
8013;SDS011;4052;50.500;8.660;2022-10-28T16:18:51;3.47;;;2.13;;
8013;SDS011;4052;50.500;8.660;2022-10-28T16:21:23;1.97;;;1.77;;
8013;SDS011;4052;50.500;8.660;2022-10-28T16:23:50;2.43;;;2.10;;
8013;SDS011;4052;50.500;8.660;2022-10-28T16:26:20;3.03;;;1.90;;
8013;SDS011;4052;50.500;8.660;2022-10-28T16:28:46;2.13;;;1.93;;
8013;SDS011;4052;50.500;8.660;2022-10-28T16:31:15;3.37;;;2.23;;
8013;SDS011;4052;50.500;8.660;2022-10-28T16:33:42;5.63;;;2.60;;
8013;SDS011;4052;50.500;8.660;2022-10-28T16:36:08;8.07;;;2.50;;
8013;SDS011;4052;50.500;8.660;2022-10-28T16:38:34;6.00;;;2.37;;
8013;SDS011;4052;50.500;8.660;2022-10-28T16:41:01;5.17;;;2.63;;
8013;SDS011;4052;50.500;8.660;2022-10-28T16:43:28;4.80;;;2.53;;
8013;SDS011;4052;50.500;8.660;2022-10-28T16:45:54;2.77;;;2.20;;
8013;SDS011;4052;50.500;8.660;2022-10-28T16:48:22;2.47;;;2.03;;
8013;SDS011;4052;50.500;8.660;2022-10-28T16:51:30;3.77;;;2.20;;
8013;SDS011;4052;50.500;8.660;2022-10-28T16:53:37;2.57;;;1.90;;
8013;SDS011;4052;50.500;8.660;2022-10-28T16:56:04;3.63;;;2.57;;
8013;SDS011;4052;50.500;8.660;2022-10-28T16:58:30;6.30;;;2.20;;
8013;SDS011;4052;50.500;8.660;2022-10-28T17:00:58;3.57;;;2.03;;
8013;SDS011;4052;50.500;8.660;2022-10-28T17:03:24;5.10;;;2.23;;
8013;SDS011;4052;50.500;8.660;2022-10-28T17:05:50;4.40;;;2.30;;
8013;SDS011;4052;50.500;8.660;2022-10-28T17:08:16;3.83;;;2.03;;
8013;SDS011;4052;50.500;8.660;2022-10-28T17:10:42;7.17;;;2.17;;
8013;SDS011;4052;50.500;8.660;2022-10-28T17:13:11;2.43;;;1.57;;
8013;SDS011;4052;50.500;8.660;2022-10-28T17:15:37;4.93;;;1.90;;
8013;SDS011;4052;50.500;8.660;2022-10-28T17:18:03;5.27;;;2.20;;
8013;SDS011;4052;50.500;8.660;2022-10-28T17:20:29;5.50;;;1.93;;
8013;SDS011;4052;50.500;8.660;2022-10-28T17:22:55;3.43;;;1.67;;
8013;SDS011;4052;50.500;8.660;2022-10-28T17:25:24;2.87;;;1.87;;
8013;SDS011;4052;50.500;8.660;2022-10-28T17:27:51;1.70;;;1.60;;
8013;SDS011;4052;50.500;8.660;2022-10-28T17:30:17;2.13;;;1.47;;
8013;SDS011;4052;50.500;8.660;2022-10-28T17:32:43;4.27;;;1.70;;
8013;SDS011;4052;50.500;8.660;2022-10-28T17:35:09;2.50;;;1.77;;